Time;durP1;ratioP1;P1;durP2;ratioP2;P2;SDS_P1;SDS_P2;PMS_P1;PMS_P2;Temp;Humidity;BMP_temperature;BMP_pressure;BME280_temperature;BME280_humidity;BME280_pressure;Samples;Min_cycle;Max_cycle;Signal;HPM_P1;HPM_P2
2024/01/19 00:00:38;;;;;;;4.47;1.37;;;-0.10;99.90;;;;;;5096351;27;20091;-86
2024/01/19 00:03:04;;;;;;;4.23;1.20;;;-0.10;99.90;;;;;;5110766;27;20031;-86
2024/01/19 00:05:30;;;;;;;5.90;0.90;;;-0.10;99.90;;;;;;5093846;27;20409;-86
2024/01/19 00:07:56;;;;;;;8.07;1.80;;;-0.10;99.90;;;;;;5101132;27;20598;-86
2024/01/19 00:10:22;;;;;;;3.00;1.00;;;-0.20;99.90;;;;;;5111285;28;20085;-86
2024/01/19 00:12:47;;;;;;;2.10;0.80;;;-0.20;99.90;;;;;;5129372;27;20034;-86
2024/01/19 00:15:13;;;;;;;5.00;1.20;;;-0.20;99.90;;;;;;5115962;27;20498;-86
2024/01/19 00:17:39;;;;;;;3.07;0.90;;;-0.10;99.90;;;;;;5116143;27;20035;-85
2024/01/19 00:20:08;;;;;;;2.67;1.07;;;0.00;99.90;;;;;;5098770;27;20035;-85
2024/01/19 00:22:34;;;;;;;2.97;0.67;;;0.30;99.90;;;;;;5104517;28;20526;-86
2024/01/19 00:24:59;;;;;;;3.20;0.70;;;0.40;99.90;;;;;;5096079;27;20035;-85
2024/01/19 00:27:25;;;;;;;1.73;0.50;;;0.40;99.90;;;;;;5134306;27;20099;-85
2024/01/19 00:29:51;;;;;;;6.10;1.03;;;0.40;99.90;;;;;;5098754;27;20023;-85
2024/01/19 00:32:16;;;;;;;2.47;1.13;;;0.40;99.90;;;;;;5098910;27;20046;-86
2024/01/19 00:34:42;;;;;;;3.87;0.77;;;0.40;99.90;;;;;;5115245;27;20031;-86
2024/01/19 00:37:07;;;;;;;6.73;0.57;;;0.40;99.90;;;;;;5122991;27;20031;-86
2024/01/19 00:39:33;;;;;;;1.37;0.50;;;1.60;99.90;;;;;;5114745;27;20047;-86
2024/01/19 00:41:59;;;;;;;2.17;0.73;;;0.30;99.90;;;;;;5096546;27;20031;-86
2024/01/19 00:44:24;;;;;;;4.53;0.83;;;0.40;99.90;;;;;;5133807;27;20038;-87
2024/01/19 00:46:51;;;;;;;2.53;0.63;;;0.40;99.90;;;;;;5115676;27;20063;-88
2024/01/19 00:49:17;;;;;;;3.03;1.00;;;0.40;99.90;;;;;;5113717;27;20039;-86
2024/01/19 00:51:43;;;;;;;1.43;0.50;;;0.30;99.90;;;;;;5122434;27;20062;-85
2024/01/19 00:54:08;;;;;;;3.33;0.83;;;0.20;99.90;;;;;;5111954;27;20027;-87
2024/01/19 00:56:34;;;;;;;1.53;0.67;;;0.20;99.90;;;;;;5097535;27;20057;-87
2024/01/19 00:58:59;;;;;;;2.37;0.70;;;0.10;99.90;;;;;;5132198;27;20039;-87
2024/01/19 01:01:25;;;;;;;2.93;0.73;;;1.50;99.90;;;;;;5128557;27;20031;-87
2024/01/19 01:03:51;;;;;;;1.30;0.77;;;0.10;99.90;;;;;;5104572;27;20486;-86
2024/01/19 01:06:16;;;;;;;2.77;0.80;;;0.00;99.90;;;;;;5095477;27;20077;-86
2024/01/19 01:08:42;;;;;;;3.13;0.90;;;0.00;99.90;;;;;;5092206;28;20067;-87
2024/01/19 01:11:08;;;;;;;2.30;0.80;;;1.10;99.90;;;;;;5129032;27;20038;-88
2024/01/19 01:13:34;;;;;;;2.20;0.67;;;-0.20;99.90;;;;;;5132446;27;20031;-87
2024/01/19 01:16:00;;;;;;;3.27;0.70;;;-0.20;99.90;;;;;;5133024;27;20505;-87
2024/01/19 01:18:26;;;;;;;3.10;1.00;;;1.10;99.90;;;;;;5128595;27;20045;-87
2024/01/19 01:20:52;;;;;;;3.53;0.93;;;-0.30;99.90;;;;;;5109329;27;20106;-87
2024/01/19 01:23:18;;;;;;;1.17;0.70;;;1.20;99.90;;;;;;5132031;27;20039;-87
2024/01/19 01:25:44;;;;;;;3.43;1.00;;;-0.40;99.90;;;;;;5109789;27;20039;-87
2024/01/19 01:28:09;;;;;;;1.80;0.80;;;-0.50;99.90;;;;;;5111602;27;20023;-87
2024/01/19 01:30:35;;;;;;;1.93;0.83;;;-0.50;99.90;;;;;;5113263;27;20035;-87
2024/01/19 01:33:01;;;;;;;2.87;1.07;;;-0.50;99.90;;;;;;5093471;27;20031;-88
2024/01/19 01:35:26;;;;;;;1.67;0.77;;;-0.60;99.90;;;;;;5123952;27;20027;-88
2024/01/19 01:37:52;;;;;;;2.43;0.80;;;-0.40;99.90;;;;;;5108849;28;20077;-87
2024/01/19 01:40:18;;;;;;;3.00;0.90;;;-0.70;99.90;;;;;;5081133;27;20046;-86
2024/01/19 01:42:44;;;;;;;4.50;0.90;;;-0.70;99.90;;;;;;5105882;28;20761;-85
2024/01/19 01:45:10;;;;;;;3.03;0.90;;;-0.60;99.90;;;;;;5106550;27;20379;-87
2024/01/19 01:47:36;;;;;;;2.67;1.07;;;-0.70;99.90;;;;;;5127062;27;20042;-87
2024/01/19 01:50:02;;;;;;;3.80;0.97;;;-0.80;99.90;;;;;;5112329;27;20027;-87
2024/01/19 01:52:28;;;;;;;7.10;1.13;;;-0.80;99.90;;;;;;5113004;27;20402;-86
2024/01/19 01:54:54;;;;;;;4.40;0.90;;;-0.90;99.90;;;;;;5101942;27;20118;-87
2024/01/19 01:57:22;;;;;;;4.63;1.00;;;-0.80;99.90;;;;;;5105923;27;20551;-86
2024/01/19 01:59:48;;;;;;;5.63;1.30;;;-0.90;99.90;;;;;;5094102;27;20044;-86
2024/01/19 02:02:14;;;;;;;2.57;0.93;;;-0.90;99.90;;;;;;5081607;27;20539;-86
2024/01/19 02:04:40;;;;;;;5.07;0.90;;;-0.90;99.90;;;;;;5111242;27;20039;-86
2024/01/19 02:07:06;;;;;;;3.67;1.10;;;-0.90;99.90;;;;;;5121031;27;20066;-86
2024/01/19 02:09:32;;;;;;;1.87;1.00;;;-0.90;99.90;;;;;;5110745;28;20036;-84
2024/01/19 02:11:57;;;;;;;3.57;0.70;;;-0.90;99.90;;;;;;5114196;27;20034;-86
2024/01/19 02:14:23;;;;;;;4.93;1.33;;;-1.00;99.90;;;;;;5090183;28;20081;-86
2024/01/19 02:16:49;;;;;;;4.53;1.23;;;-0.90;99.90;;;;;;5106266;28;20031;-86
2024/01/19 02:19:14;;;;;;;3.43;0.90;;;-0.80;99.90;;;;;;5113244;28;20027;-86
2024/01/19 02:21:40;;;;;;;5.17;1.40;;;-0.70;99.90;;;;;;5112421;27;20023;-87
2024/01/19 02:24:12;;;;;;;5.10;1.37;;;-0.70;99.90;;;;;;5104478;27;20035;-86
2024/01/19 02:26:38;;;;;;;6.43;1.00;;;-0.50;99.90;;;;;;5128023;28;20047;-87
2024/01/19 02:29:04;;;;;;;9.70;1.57;;;-0.50;99.90;;;;;;5106547;28;20034;-87
2024/01/19 02:31:30;;;;;;;6.00;1.20;;;-0.40;99.90;;;;;;5109292;28;20494;-86
2024/01/19 02:33:56;;;;;;;3.80;0.80;;;-0.40;99.90;;;;;;5080977;28;20031;-87
2024/01/19 02:36:21;;;;;;;4.27;1.33;;;-0.40;99.90;;;;;;5113221;28;20047;-86
2024/01/19 02:38:47;;;;;;;5.90;0.80;;;-0.40;99.90;;;;;;5112305;28;20045;-87
2024/01/19 02:41:12;;;;;;;6.27;0.87;;;-0.40;99.90;;;;;;5097604;28;20050;-86
2024/01/19 02:43:38;;;;;;;6.27;1.20;;;1.00;99.90;;;;;;5095142;28;20097;-86
2024/01/19 02:46:04;;;;;;;3.23;1.00;;;-0.50;99.90;;;;;;5108279;28;20590;-86
2024/01/19 02:48:29;;;;;;;5.37;1.10;;;-0.60;99.90;;;;;;5095240;28;20062;-86
2024/01/19 02:50:55;;;;;;;2.93;1.00;;;-0.60;99.90;;;;;;5086047;28;20510;-87
2024/01/19 02:53:21;;;;;;;2.07;1.10;;;-0.70;99.90;;;;;;5089433;28;20408;-86
2024/01/19 02:55:46;;;;;;;3.37;1.13;;;-0.80;99.90;;;;;;5112917;27;20030;-86
2024/01/19 02:58:12;;;;;;;6.77;1.27;;;-0.90;99.90;;;;;;5100443;27;20031;-86
2024/01/19 03:00:37;;;;;;;3.83;1.00;;;-1.00;99.90;;;;;;5123096;27;20051;-85
2024/01/19 03:03:03;;;;;;;3.67;0.80;;;-1.10;99.90;;;;;;5106377;28;20046;-85
2024/01/19 03:05:29;;;;;;;3.83;1.13;;;-0.60;99.90;;;;;;5112718;27;20047;-85
2024/01/19 03:07:55;;;;;;;5.03;0.93;;;-1.10;99.90;;;;;;5115329;27;20490;-85
2024/01/19 03:10:20;;;;;;;2.73;0.87;;;-1.20;99.90;;;;;;5133800;27;20113;-85
2024/01/19 03:12:46;;;;;;;3.43;1.00;;;-1.20;99.90;;;;;;5105961;27;20032;-85
2024/01/19 03:15:11;;;;;;;4.47;1.00;;;-1.20;99.90;;;;;;5089987;27;20124;-86
2024/01/19 03:17:37;;;;;;;2.87;0.90;;;-1.30;99.90;;;;;;5128879;27;20039;-86
2024/01/19 03:20:05;;;;;;;3.33;1.00;;;-1.30;99.90;;;;;;5113996;27;20039;-86
2024/01/19 03:22:31;;;;;;;5.73;1.17;;;-1.20;99.90;;;;;;5087076;28;20131;-85
2024/01/19 03:24:56;;;;;;;10.13;1.40;;;-1.10;99.90;;;;;;5105379;27;20114;-86
2024/01/19 03:27:22;;;;;;;2.50;0.93;;;-1.00;99.90;;;;;;5117074;27;20038;-86
2024/01/19 03:29:48;;;;;;;2.40;0.90;;;-0.90;99.90;;;;;;5098891;27;20042;-85
2024/01/19 03:32:13;;;;;;;5.13;1.30;;;-0.90;99.90;;;;;;5126789;27;20028;-86
2024/01/19 03:34:40;;;;;;;8.30;1.30;;;-0.80;99.90;;;;;;5125086;27;20109;-86
2024/01/19 03:37:05;;;;;;;5.87;0.93;;;-0.80;99.90;;;;;;5115845;27;20035;-86
2024/01/19 03:39:32;;;;;;;2.67;0.90;;;0.70;99.90;;;;;;5105847;27;20043;-86
2024/01/19 03:41:58;;;;;;;6.60;1.67;;;-0.60;99.90;;;;;;5096931;27;20070;-85
2024/01/19 03:44:24;;;;;;;7.20;1.20;;;-0.50;99.90;;;;;;5108287;28;20464;-86
2024/01/19 03:46:50;;;;;;;3.77;1.40;;;-0.40;99.90;;;;;;5088102;28;20119;-86
2024/01/19 03:49:16;;;;;;;7.90;1.70;;;-0.30;99.90;;;;;;5098944;27;20085;-86
2024/01/19 03:52:03;;;;;;;6.87;1.30;;;-0.30;99.90;;;;;;5115178;27;20035;-87
2024/01/19 03:54:29;;;;;;;6.73;1.10;;;-0.20;99.90;;;;;;5104931;27;20037;-86
2024/01/19 03:56:57;;;;;;;5.10;1.10;;;-0.20;99.90;;;;;;5093501;27;20031;-86
2024/01/19 03:59:23;;;;;;;2.93;0.70;;;-0.20;99.90;;;;;;5132470;27;20494;-86
2024/01/19 04:01:49;;;;;;;7.70;0.93;;;-0.30;99.90;;;;;;5110413;27;20041;-86
2024/01/19 04:04:15;;;;;;;7.37;1.20;;;-0.30;99.90;;;;;;5134677;27;20486;-85
2024/01/19 04:06:40;;;;;;;7.80;0.97;;;-0.40;99.90;;;;;;5115218;27;20118;-86
2024/01/19 04:09:06;;;;;;;3.43;0.77;;;-0.40;99.90;;;;;;5114255;27;20031;-86
2024/01/19 04:11:36;;;;;;;5.03;1.57;;;-0.50;99.90;;;;;;5105111;27;20102;-85
2024/01/19 04:14:02;;;;;;;4.20;0.90;;;-0.50;99.90;;;;;;5104862;28;20055;-84
2024/01/19 04:16:28;;;;;;;3.23;1.13;;;-0.60;99.90;;;;;;5113884;27;20035;-84
2024/01/19 04:18:54;;;;;;;5.73;0.90;;;-0.70;99.90;;;;;;5090982;27;20419;-85
2024/01/19 04:21:19;;;;;;;2.23;0.67;;;-0.70;99.90;;;;;;5128639;27;20046;-85
2024/01/19 04:23:45;;;;;;;9.00;1.67;;;-0.80;99.90;;;;;;5090266;28;20039;-85
2024/01/19 04:26:11;;;;;;;6.07;0.90;;;-0.90;99.90;;;;;;5095768;27;20398;-85
2024/01/19 04:28:37;;;;;;;4.87;1.00;;;-1.00;99.90;;;;;;5096815;27;20076;-85
2024/01/19 04:31:03;;;;;;;4.13;1.67;;;-1.10;99.90;;;;;;5094356;27;20031;-85
2024/01/19 04:33:29;;;;;;;4.23;0.80;;;-1.10;99.90;;;;;;5111901;27;20043;-85
2024/01/19 04:35:54;;;;;;;2.90;0.60;;;-1.20;99.90;;;;;;5117544;27;20036;-84
2024/01/19 04:38:20;;;;;;;3.83;1.00;;;-1.30;99.90;;;;;;5115888;27;20114;-84
2024/01/19 04:40:45;;;;;;;2.33;0.73;;;-1.40;99.90;;;;;;5111148;27;20114;-85
2024/01/19 04:43:11;;;;;;;1.87;0.80;;;-1.40;99.90;;;;;;5107770;28;20039;-83
2024/01/19 04:45:38;;;;;;;5.53;0.80;;;-1.50;99.90;;;;;;5107073;27;20126;-84
2024/01/19 04:48:03;;;;;;;4.40;1.10;;;-1.50;99.90;;;;;;5105550;27;20114;-84
2024/01/19 04:50:29;;;;;;;4.57;1.00;;;-1.60;99.90;;;;;;5097177;27;20081;-84
2024/01/19 04:52:55;;;;;;;3.43;0.93;;;-1.60;99.90;;;;;;5110882;27;20086;-84
2024/01/19 04:55:20;;;;;;;4.40;0.63;;;-1.60;99.90;;;;;;5112263;27;20084;-83
2024/01/19 04:57:46;;;;;;;7.97;1.27;;;-1.70;99.90;;;;;;5085430;27;20199;-85
2024/01/19 05:00:13;;;;;;;7.23;1.63;;;-1.70;99.90;;;;;;5122834;27;20050;-85
2024/01/19 05:02:39;;;;;;;8.83;1.30;;;-1.70;99.90;;;;;;5116276;27;20027;-85
2024/01/19 05:05:04;;;;;;;6.30;0.90;;;-1.70;99.90;;;;;;5120129;27;20118;-85
2024/01/19 05:07:30;;;;;;;4.90;0.93;;;-1.70;99.90;;;;;;5083814;28;20058;-85
2024/01/19 05:09:57;;;;;;;3.97;1.40;;;-1.80;99.90;;;;;;5088349;28;20470;-84
2024/01/19 05:12:23;;;;;;;4.17;1.17;;;-1.80;99.90;;;;;;5124218;27;20035;-84
2024/01/19 05:14:49;;;;;;;4.13;1.10;;;-1.90;99.90;;;;;;5082894;28;20035;-84
2024/01/19 05:17:14;;;;;;;4.30;1.20;;;-1.90;99.90;;;;;;5103267;27;20043;-84
2024/01/19 05:19:40;;;;;;;7.33;1.30;;;-1.90;99.90;;;;;;5113316;27;20034;-84
2024/01/19 05:22:06;;;;;;;5.90;1.00;;;-1.90;99.90;;;;;;5114091;27;20039;-84
2024/01/19 05:24:32;;;;;;;7.43;1.40;;;-1.90;99.90;;;;;;5106229;27;20036;-84
2024/01/19 05:26:57;;;;;;;6.03;1.40;;;-1.80;99.90;;;;;;5112207;27;20031;-84
2024/01/19 05:29:23;;;;;;;4.37;1.40;;;-1.80;99.90;;;;;;5113093;27;20049;-84
2024/01/19 05:31:49;;;;;;;5.83;1.20;;;-1.70;99.90;;;;;;5108549;27;20035;-85
2024/01/19 05:34:15;;;;;;;7.40;1.73;;;-1.60;99.90;;;;;;5124444;27;20039;-84
2024/01/19 05:36:42;;;;;;;5.93;1.37;;;-1.50;99.90;;;;;;5096093;27;20035;-84
2024/01/19 05:39:08;;;;;;;9.10;2.07;;;-1.50;99.90;;;;;;5116534;27;20563;-84
2024/01/19 05:41:34;;;;;;;5.40;1.00;;;-1.40;99.90;;;;;;5085520;27;20502;-84
2024/01/19 05:44:00;;;;;;;6.23;1.00;;;-1.40;99.90;;;;;;5124612;27;20410;-84
2024/01/19 05:46:26;;;;;;;3.73;1.00;;;-1.40;99.90;;;;;;5113789;27;20035;-84
2024/01/19 05:48:51;;;;;;;7.27;1.20;;;-1.40;99.90;;;;;;5129536;27;20375;-84
2024/01/19 05:51:17;;;;;;;10.80;1.50;;;-1.50;99.90;;;;;;5104169;28;20032;-84
2024/01/19 05:53:43;;;;;;;10.63;1.03;;;-1.50;99.90;;;;;;5086065;28;20038;-84
2024/01/19 05:56:08;;;;;;;7.83;1.30;;;-1.50;99.90;;;;;;5107008;27;20047;-85
2024/01/19 05:58:34;;;;;;;5.53;1.50;;;-1.60;99.90;;;;;;5110864;27;20043;-84
2024/01/19 06:01:02;;;;;;;4.30;1.00;;;-1.60;99.90;;;;;;5088963;28;20122;-84
2024/01/19 06:03:29;;;;;;;5.60;1.20;;;-1.70;99.90;;;;;;5124565;27;20571;-83
2024/01/19 06:05:56;;;;;;;4.57;1.10;;;-1.70;99.90;;;;;;5112773;27;20526;-85
2024/01/19 06:08:22;;;;;;;6.73;1.40;;;-1.70;99.90;;;;;;5100764;28;20067;-85
2024/01/19 06:10:47;;;;;;;8.10;1.37;;;-1.60;99.90;;;;;;5091477;27;20070;-85
2024/01/19 06:13:13;;;;;;;6.40;1.47;;;-1.50;99.90;;;;;;5113375;27;20104;-84
2024/01/19 06:15:39;;;;;;;7.37;1.50;;;-1.40;99.90;;;;;;5096793;28;20047;-85
2024/01/19 06:18:05;;;;;;;8.60;1.50;;;-1.30;99.90;;;;;;5096072;27;20035;-85
2024/01/19 06:20:32;;;;;;;7.63;1.30;;;-0.50;99.90;;;;;;5096416;28;20046;-84
2024/01/19 06:22:57;;;;;;;8.43;1.27;;;0.30;99.90;;;;;;5106951;28;20035;-84
2024/01/19 06:25:23;;;;;;;7.97;1.40;;;-0.90;99.90;;;;;;5095194;27;20106;-84
2024/01/19 06:27:48;;;;;;;7.50;1.43;;;-0.80;99.90;;;;;;5109965;28;20136;-84
2024/01/19 06:30:14;;;;;;;6.47;1.20;;;-0.80;99.90;;;;;;5106628;28;20069;-84
2024/01/19 06:32:40;;;;;;;7.83;1.40;;;-0.30;99.90;;;;;;5104412;27;20079;-84
2024/01/19 06:35:06;;;;;;;5.53;1.53;;;-0.90;99.90;;;;;;5116115;27;20031;-85
2024/01/19 06:37:32;;;;;;;4.67;0.80;;;-0.90;99.90;;;;;;5137538;27;20046;-84
2024/01/19 06:39:58;;;;;;;2.53;0.90;;;-1.00;99.90;;;;;;5129442;27;20091;-85
2024/01/19 06:42:24;;;;;;;3.63;1.00;;;-1.10;99.90;;;;;;5103529;28;20107;-84
2024/01/19 06:44:50;;;;;;;7.87;2.07;;;-1.10;99.90;;;;;;5105716;28;20039;-84
2024/01/19 06:47:18;;;;;;;5.63;1.20;;;-1.20;99.90;;;;;;5095835;27;20092;-84
2024/01/19 06:49:44;;;;;;;8.83;2.07;;;-1.20;99.90;;;;;;5133517;27;20042;-84
2024/01/19 06:52:10;;;;;;;6.40;1.40;;;-1.30;99.90;;;;;;5107250;27;20035;-84
2024/01/19 06:54:36;;;;;;;6.57;1.30;;;-1.30;99.90;;;;;;5116605;27;20516;-84
2024/01/19 06:57:02;;;;;;;1.80;1.10;;;-1.30;99.90;;;;;;5112952;27;20035;-84
2024/01/19 06:59:27;;;;;;;7.00;1.60;;;-1.30;99.90;;;;;;5132395;27;20073;-84
2024/01/19 07:01:53;;;;;;;4.73;1.47;;;-1.40;99.90;;;;;;5135114;27;20034;-84
2024/01/19 07:04:18;;;;;;;6.87;1.70;;;-1.30;99.90;;;;;;5118607;27;20039;-84
2024/01/19 07:06:44;;;;;;;5.57;1.60;;;-1.40;99.90;;;;;;5130897;27;20525;-84
2024/01/19 07:09:10;;;;;;;12.30;1.40;;;-1.40;99.90;;;;;;5108774;27;20402;-84
2024/01/19 07:11:36;;;;;;;8.13;1.40;;;-1.50;99.90;;;;;;5084934;27;20059;-83
2024/01/19 07:14:01;;;;;;;12.70;1.50;;;-1.50;99.90;;;;;;5102217;28;20534;-83
2024/01/19 07:16:27;;;;;;;3.63;1.27;;;-1.50;99.90;;;;;;5107302;27;20057;-83
2024/01/19 07:18:53;;;;;;;8.27;1.53;;;-1.50;99.90;;;;;;5096395;27;20038;-82
2024/01/19 07:21:20;;;;;;;8.33;1.70;;;-1.50;99.90;;;;;;5116388;27;20415;-84
2024/01/19 07:23:46;;;;;;;8.20;1.70;;;-1.50;99.90;;;;;;5094469;28;20100;-83
2024/01/19 07:26:11;;;;;;;10.80;2.13;;;-1.50;99.90;;;;;;5109981;27;20063;-83
2024/01/19 07:28:37;;;;;;;11.73;2.10;;;-1.50;99.90;;;;;;5115596;27;20099;-83
2024/01/19 07:31:02;;;;;;;8.47;2.00;;;-1.40;99.90;;;;;;5134723;27;20035;-86
2024/01/19 07:33:28;;;;;;;15.80;1.90;;;-1.50;99.90;;;;;;5100729;27;20117;-84
2024/01/19 07:35:54;;;;;;;8.33;1.80;;;-1.40;99.90;;;;;;5114230;27;20031;-83
2024/01/19 07:38:20;;;;;;;14.67;2.27;;;-1.50;99.90;;;;;;5098919;28;20032;-83
2024/01/19 07:40:46;;;;;;;10.50;2.10;;;-1.40;99.90;;;;;;5102809;27;20108;-83
2024/01/19 07:43:11;;;;;;;7.63;1.80;;;-1.40;99.90;;;;;;5099730;27;20506;-84
2024/01/19 07:45:37;;;;;;;9.40;1.97;;;-1.40;99.90;;;;;;5112172;28;20028;-85
2024/01/19 07:48:03;;;;;;;9.30;2.60;;;-1.40;99.90;;;;;;5098887;27;20063;-84
2024/01/19 07:50:28;;;;;;;12.10;2.37;;;-1.40;99.90;;;;;;5113765;27;20319;-84
2024/01/19 07:52:54;;;;;;;7.93;2.27;;;-1.30;99.90;;;;;;5115012;27;20031;-84
2024/01/19 07:55:20;;;;;;;10.57;2.00;;;-1.30;99.90;;;;;;5116337;27;20042;-84
2024/01/19 07:57:46;;;;;;;8.47;1.97;;;-1.30;99.90;;;;;;5116076;27;20042;-84
2024/01/19 08:00:12;;;;;;;8.17;2.23;;;-1.20;99.90;;;;;;5114107;27;20084;-84
2024/01/19 08:02:40;;;;;;;10.87;2.40;;;-1.20;99.90;;;;;;5094539;27;20041;-84
2024/01/19 08:05:06;;;;;;;6.07;2.10;;;-1.20;99.90;;;;;;5114591;27;20036;-84
2024/01/19 08:07:31;;;;;;;9.60;2.10;;;-1.20;99.90;;;;;;5116949;27;20096;-84
2024/01/19 08:09:58;;;;;;;13.77;2.13;;;-1.10;99.90;;;;;;5117564;27;20444;-84
2024/01/19 08:12:23;;;;;;;6.37;1.93;;;-1.20;99.90;;;;;;5133194;27;20035;-84
2024/01/19 08:14:50;;;;;;;6.87;2.03;;;-1.20;99.90;;;;;;5108765;28;20419;-84
2024/01/19 08:17:16;;;;;;;5.30;1.70;;;-1.10;99.90;;;;;;5097328;27;20046;-84
2024/01/19 08:19:41;;;;;;;9.87;2.10;;;-1.10;99.90;;;;;;5085580;28;20040;-84
2024/01/19 08:22:07;;;;;;;11.30;2.20;;;-1.10;99.90;;;;;;5099405;28;20035;-84
2024/01/19 08:24:36;;;;;;;6.03;2.23;;;-1.00;99.90;;;;;;5111502;27;20039;-84
2024/01/19 08:27:02;;;;;;;10.03;2.63;;;-1.00;99.90;;;;;;5110297;28;20069;-84
2024/01/19 08:29:28;;;;;;;9.57;1.90;;;-1.00;99.90;;;;;;5084907;27;20071;-84
2024/01/19 08:31:53;;;;;;;10.77;2.20;;;-1.00;99.90;;;;;;5101262;27;20031;-84
2024/01/19 08:34:19;;;;;;;9.13;3.03;;;-0.90;99.90;;;;;;5093960;27;20414;-84
2024/01/19 08:36:44;;;;;;;10.77;2.13;;;-0.90;99.90;;;;;;5111972;27;20027;-83
2024/01/19 08:39:10;;;;;;;5.93;2.10;;;-0.90;99.90;;;;;;5108710;27;20035;-84
2024/01/19 08:41:43;;;;;;;13.90;2.90;;;-0.90;99.90;;;;;;5103313;27;20050;-84
2024/01/19 08:44:09;;;;;;;10.55;2.78;;;-0.80;99.90;;;;;;5090004;28;20039;-84
2024/01/19 08:46:41;;;;;;;6.57;1.53;;;-0.80;99.90;;;;;;5102888;27;20070;-84
2024/01/19 08:49:06;;;;;;;12.20;2.13;;;-0.80;99.90;;;;;;5080869;28;20059;-84
2024/01/19 08:51:32;;;;;;;4.93;1.90;;;-0.80;99.90;;;;;;5119989;27;20448;-85
2024/01/19 08:53:57;;;;;;;13.70;2.37;;;-0.80;99.90;;;;;;5114535;27;20069;-85
2024/01/19 08:56:23;;;;;;;7.47;1.90;;;-0.80;99.90;;;;;;5107883;27;20032;-84
2024/01/19 08:58:49;;;;;;;3.40;1.63;;;-0.80;99.90;;;;;;5124858;27;20070;-84
2024/01/19 09:01:19;;;;;;;9.60;2.20;;;-0.80;99.90;;;;;;5105653;27;20039;-84
2024/01/19 09:03:44;;;;;;;11.17;2.40;;;-0.80;99.90;;;;;;5087048;27;20080;-84
2024/01/19 09:06:10;;;;;;;3.43;1.50;;;-0.80;99.90;;;;;;5109367;27;20035;-84
2024/01/19 09:08:36;;;;;;;11.53;2.10;;;-0.80;99.90;;;;;;5109976;27;20069;-84
2024/01/19 09:11:01;;;;;;;8.20;1.77;;;-0.80;99.90;;;;;;5096267;27;20116;-84
2024/01/19 09:13:27;;;;;;;5.10;1.60;;;-0.70;99.90;;;;;;5114388;27;20070;-84
2024/01/19 09:15:53;;;;;;;13.73;2.00;;;-0.70;99.90;;;;;;5105679;27;20123;-85
2024/01/19 09:18:19;;;;;;;9.37;2.00;;;-0.70;99.90;;;;;;5129725;27;20095;-84
2024/01/19 09:20:45;;;;;;;7.50;1.60;;;-0.60;99.90;;;;;;5096938;27;20031;-84
2024/01/19 09:23:11;;;;;;;4.67;2.07;;;-0.60;99.90;;;;;;5132944;27;20144;-84
2024/01/19 09:25:36;;;;;;;9.13;1.60;;;-0.60;99.90;;;;;;5124720;27;20038;-85
2024/01/19 09:28:02;;;;;;;7.10;2.00;;;-0.50;99.90;;;;;;5114205;27;20069;-84
2024/01/19 09:30:28;;;;;;;6.23;1.50;;;-0.50;99.90;;;;;;5112291;27;20031;-85
2024/01/19 09:32:53;;;;;;;5.03;1.70;;;-0.50;99.90;;;;;;5119556;27;20031;-84
2024/01/19 09:35:19;;;;;;;8.40;2.10;;;-0.50;99.90;;;;;;5095577;28;20039;-84
2024/01/19 09:37:45;;;;;;;12.43;1.97;;;-0.50;99.90;;;;;;5096129;27;20043;-85
2024/01/19 09:40:11;;;;;;;8.50;2.00;;;-0.40;99.90;;;;;;5085398;27;20123;-84
2024/01/19 09:42:39;;;;;;;7.70;2.03;;;-0.40;99.90;;;;;;5108957;27;20039;-85
2024/01/19 09:45:07;;;;;;;4.83;2.03;;;-0.30;99.90;;;;;;5117776;27;20414;-85
2024/01/19 09:47:47;;;;;;;6.53;1.50;;;-0.30;99.90;;;;;;5101160;27;20041;-85
2024/01/19 09:50:18;;;;;;;6.20;1.60;;;-0.30;99.90;;;;;;5111542;27;20452;-85
2024/01/19 09:52:56;;;;;;;8.37;1.90;;;-0.20;99.90;;;;;;5132451;27;20039;-85
2024/01/19 09:55:24;;;;;;;7.73;1.63;;;-0.10;99.90;;;;;;5111459;27;20129;-85
2024/01/19 09:57:50;;;;;;;11.70;2.10;;;0.00;99.90;;;;;;5130062;27;20390;-85
2024/01/19 10:00:18;;;;;;;4.83;1.83;;;0.10;99.90;;;;;;5109805;27;20050;-86
2024/01/19 10:02:51;;;;;;;9.50;2.10;;;0.10;99.90;;;;;;5094167;27;20067;-86
2024/01/19 10:05:18;;;;;;;7.40;1.43;;;0.20;99.90;;;;;;5125434;27;20043;-86
2024/01/19 10:30:59;;;;;;;10.70;1.70;;;0.50;99.90;;;;;;5125525;27;20042;-87
2024/01/19 10:41:09;;;;;;;8.50;2.83;;;1.40;99.90;;;;;;5026560;28;20140;-88
2024/01/19 10:51:29;;;;;;;11.57;1.70;;;1.70;99.90;;;;;;4893944;29;20052;-89
2024/01/19 10:54:02;;;;;;;15.53;2.30;;;2.80;99.90;;;;;;4925012;28;20048;-88
2024/01/19 10:56:28;;;;;;;12.93;1.80;;;1.80;99.90;;;;;;4985250;28;20506;-89
2024/01/19 10:58:53;;;;;;;9.40;1.60;;;1.90;99.90;;;;;;4990731;28;20355;-88
2024/01/19 11:01:19;;;;;;;5.70;1.50;;;2.00;99.90;;;;;;5006565;28;20049;-90
2024/01/19 11:03:45;;;;;;;8.77;1.80;;;3.60;99.90;;;;;;4992194;28;20073;-89
2024/01/19 11:06:11;;;;;;;10.00;1.80;;;3.50;99.90;;;;;;4988081;28;20077;-89
2024/01/19 11:08:38;;;;;;;9.23;1.98;;;3.50;99.90;;;;;;4991688;28;20049;-88
2024/01/19 11:11:07;;;;;;;8.53;1.67;;;3.10;99.90;;;;;;4973789;28;20041;-88
2024/01/19 11:13:40;;;;;;;10.65;1.92;;;2.40;99.90;;;;;;5008994;28;20064;-87
2024/01/19 11:16:15;;;;;;;9.37;2.00;;;2.50;99.90;;;;;;4974763;28;20041;-86
2024/01/19 11:18:44;;;;;;;8.57;1.42;;;3.30;99.90;;;;;;5013810;28;20038;-88
2024/01/19 11:21:09;;;;;;;4.88;1.30;;;2.60;99.90;;;;;;5008070;28;20082;-86
2024/01/19 11:23:37;;;;;;;6.63;1.65;;;3.80;99.90;;;;;;5002398;28;20078;-87
2024/01/19 11:26:10;;;;;;;11.27;2.00;;;2.90;99.90;;;;;;5007373;28;20485;-86
2024/01/19 11:28:49;;;;;;;9.00;1.60;;;3.70;99.90;;;;;;4992921;28;20046;-87
2024/01/19 11:31:18;;;;;;;7.68;1.70;;;3.10;99.90;;;;;;4991192;28;20077;-88
2024/01/19 11:33:45;;;;;;;7.63;1.20;;;3.20;99.90;;;;;;4980174;28;20118;-88
2024/01/19 11:36:31;;;;;;;8.50;1.42;;;3.90;99.90;;;;;;5015488;28;20074;-88
2024/01/19 11:38:57;;;;;;;6.32;1.33;;;3.40;99.90;;;;;;4989973;28;20084;-89
2024/01/19 11:41:31;;;;;;;9.27;1.70;;;4.60;99.90;;;;;;4996698;28;20045;-88
2024/01/19 11:43:57;;;;;;;10.23;1.50;;;3.80;99.90;;;;;;4994047;28;20049;-87
2024/01/19 11:46:45;;;;;;;8.95;1.38;;;3.60;99.90;;;;;;4998866;28;20038;-87
2024/01/19 11:49:34;;;;;;;14.25;1.58;;;4.70;99.90;;;;;;4992774;28;20062;-87
2024/01/19 11:52:02;;;;;;;4.68;1.38;;;4.40;99.90;;;;;;4996474;28;20038;-87
2024/01/19 11:54:29;;;;;;;8.50;1.80;;;3.80;99.90;;;;;;4979328;28;20038;-89
2024/01/19 11:57:28;;;;;;;8.02;1.40;;;3.90;99.90;;;;;;4982989;28;20397;-90
2024/01/19 11:59:53;;;;;;;5.82;1.63;;;4.00;99.90;;;;;;4996054;28;20457;-88
2024/01/19 12:02:27;;;;;;;9.88;1.33;;;4.00;99.90;;;;;;4995822;28;20088;-87
2024/01/19 12:04:54;;;;;;;3.70;0.98;;;4.00;99.90;;;;;;4992351;28;20409;-87
2024/01/19 12:07:23;;;;;;;10.43;2.47;;;4.10;99.90;;;;;;4971163;28;20042;-87
2024/01/19 12:10:09;;;;;;;7.20;1.77;;;4.10;99.90;;;;;;5012826;28;20561;-88
2024/01/19 12:12:36;;;;;;;8.30;1.45;;;4.20;99.90;;;;;;4993080;28;20068;-88
2024/01/19 12:15:10;;;;;;;10.15;1.83;;;4.30;99.90;;;;;;4990570;28;20083;-87
2024/01/19 12:17:37;;;;;;;5.10;1.40;;;4.30;99.90;;;;;;4995638;28;20042;-88
2024/01/19 12:20:06;;;;;;;7.10;1.30;;;5.30;99.90;;;;;;4997108;28;20049;-86
2024/01/19 12:22:32;;;;;;;8.15;1.27;;;4.30;99.90;;;;;;4980490;28;20034;-88
2024/01/19 12:25:17;;;;;;;11.57;1.48;;;5.50;99.90;;;;;;4996732;28;20115;-88
2024/01/19 12:27:44;;;;;;;5.03;1.27;;;5.60;99.90;;;;;;4997114;28;20057;-87
2024/01/19 12:30:17;;;;;;;5.90;1.38;;;4.40;99.90;;;;;;4997371;28;20045;-89
2024/01/19 12:32:44;;;;;;;10.95;1.80;;;4.50;99.90;;;;;;4980993;28;20091;-88
2024/01/19 12:35:11;;;;;;;8.20;1.48;;;5.20;99.90;;;;;;5010517;28;20030;-88
2024/01/19 12:37:37;;;;;;;8.88;1.50;;;4.50;99.90;;;;;;5014224;28;20046;-86
2024/01/19 12:40:14;;;;;;;10.95;2.05;;;4.60;99.90;;;;;;5012049;28;20446;-86
2024/01/19 12:42:41;;;;;;;10.73;1.52;;;4.70;99.90;;;;;;4992686;28;20042;-86
2024/01/19 12:45:08;;;;;;;6.07;1.23;;;4.70;99.90;;;;;;4990022;28;20046;-86
2024/01/19 12:47:33;;;;;;;6.72;1.92;;;4.70;99.90;;;;;;4993410;28;20046;-86
2024/01/19 12:49:59;;;;;;;8.38;1.65;;;4.80;99.90;;;;;;4991097;28;20092;-85
2024/01/19 12:52:25;;;;;;;6.88;1.58;;;4.70;99.90;;;;;;4995679;28;20065;-85
2024/01/19 12:54:51;;;;;;;6.85;0.93;;;5.60;99.90;;;;;;4978754;28;20110;-84
2024/01/19 12:57:20;;;;;;;5.93;1.27;;;5.70;99.90;;;;;;4994673;28;20436;-85
2024/01/19 13:00:18;;;;;;;8.38;1.65;;;4.80;99.90;;;;;;4995279;28;20046;-85
2024/01/19 13:02:44;;;;;;;8.85;1.10;;;4.80;99.90;;;;;;4994712;28;20040;-85
2024/01/19 13:05:20;;;;;;;7.03;1.73;;;5.60;99.90;;;;;;4994046;28;20034;-85
2024/01/19 13:07:47;;;;;;;5.90;1.23;;;5.40;99.90;;;;;;5010912;28;20045;-85
2024/01/19 13:10:22;;;;;;;9.13;1.60;;;5.60;99.90;;;;;;5012709;28;20068;-86
2024/01/19 13:12:47;;;;;;;5.57;1.02;;;5.40;99.90;;;;;;4993382;28;20037;-86
2024/01/19 13:15:18;;;;;;;4.85;1.00;;;6.00;99.90;;;;;;5007528;28;20506;-87
2024/01/19 13:18:17;;;;;;;5.97;1.05;;;5.20;99.90;;;;;;5011533;28;20038;-87
2024/01/19 13:20:48;;;;;;;2.35;0.80;;;5.10;99.90;;;;;;4956604;28;20050;-87
2024/01/19 13:23:14;;;;;;;7.10;1.25;;;6.30;99.90;;;;;;4990899;28;20057;-85
2024/01/19 13:25:40;;;;;;;3.75;0.90;;;6.20;99.90;;;;;;4992601;28;20049;-86